KCEU/CEU METAR and TAF weather

Enter ICAO airport designator
Station Type Date Time Source
KCEU METAR 2020/02/19 11:23 UTC NOAA

KCEU 191123Z AUTO 08004KT 1/4SM FG VV002 12/11 A3014 RMK AO2 T01170111


Station Type Date Time Source
KCEU Decoded METAR 2020/02/19 11:23 UTC NOAA

CLEMSON-OCONEE COUNTY AIRPORT , SC, United States (KCEU) 34-40N 082-53W 268M
Feb 19, 2020 - 06:23 AM EST / 2020.02.19 1123 UTC
Wind: from the E (080 degrees) at 5 MPH (4 KT):0
Visibility: 1/4 mile(s):0
Sky conditions: obscured
Weather: fog
Temperature: 53.1 F (11.7 C)
Dew Point: 52.0 F (11.1 C)
Relative Humidity: 96%
Pressure (altimeter): 30.14 in. Hg (1020 hPa)
ob: KCEU 191123Z AUTO 08004KT 1/4SM FG VV002 12/11 A3014 RMK AO2 T01170111
cycle: 11

Station Type Date Time Source
KCEU TAF UTC NOAA

Error!

Example: see airport list